Attica, NY

2:37 PM EDT on September 18, 2014 (GMT -0400)
South of village | Change Station
CLOSE
Current Station
Personal Weather Station
Location: Attica, NY
Elevation: 1007 ft
Nearby Weather Stations

Elev 1007 ft 42.84 °N, 78.29 °W | Updated 7 seconds ago

Overcast
Overcast
49.8 °F
Feels Like 49 °F
N
3.5
Wind Variable Wind from NW
Gusts 3.5 mph

Today
High -- | Low -- °F
--% Chance of Precip.
Yesterday
High -- | Low -- °F
Precip. -- in
6:56 AM 7:17 PM
Waning Crescent, 25% visible
Pressure 30.14 in
Visibility 10.0 miles
Clouds Overcast 900 ft
Windchill 49 °F
Dew Point 49 °F
Humidity 98%
Rainfall 0.00 in
Snow Depth Not available.
UV 2 out of 12
Pollen 3.60 out of 12
Ozone Good
PM2.5 Good
Flu Activity Not available.
METAR KBUF 181754Z 02009KT 10SM OVC009 12/09 A3013 RMK AO2 SLP204 T01220089 10167 20117 51016

More Conditions Fewer Conditions

Pressure 30.14 in
Visibility 10.0 miles
Clouds Overcast 900 ft
Windchill 49 °F
Dew Point 49 °F
Humidity 98%
Rainfall 0.00 in
Snow Depth Not available.
UV 2 out of 12
Pollen 3.60 out of 12
Ozone Good
PM2.5 Good
Flu Activity Not available.
METAR KBUF 181754Z 02009KT 10SM OVC009 12/09 A3013 RMK AO2 SLP204 T01220089 10167 20117 51016

More Conditions Fewer Conditions

10-Day Weather Forecast

Almanac

Astronomy

Sep. 18, 2014 Rise Set
Actual Time 6:56 AM EDT 7:17 PM EDT
Civil Twilight 6:27 AM EDT 7:45 PM EDT
Nautical Twilight 5:54 AM EDT 8:19 PM EDT
Astronomical Twilight 5:20 AM EDT 8:53 PM EDT
Moon 1:40 AM EDT 4:12 PM EDT
Length of Visible Light 13h 18m
Length of Day
12h 21m
Tomorrow will be 2m 53s shorter.
Waning Crescent, 25% of the Moon is Illuminated
Today
Waning Crescent
Sep 24
New
Oct 1
First Quarter
Oct 8
Full
Oct 15
Last Quarter

Today's Extremes

State Highs State Lows

Community

WunderPhotos

Upload Photos

1,754,417 photos uploaded!

WunderBlogs® & News

Nearby

Air Quality

  Air Quality AQ Index Pollutant
Yesterday Good
OZONE
Yesterday Good
PM2.5
Current Good
PM2.5
Current Good
OZONE
Thursday Good
PM2.5
Thursday Good
OZONE
Friday Good
OZONE
Friday Good
PM2.5

Snow Depth

Station Depth Elevation
No new snow has been reported.

Earthquake Activity

City Distance Mag. Time & Date
No recent earthquake activity has been reported nearby.
Minimum magnitude displayed is 2.5.

Coastal Water Temperatures

Place Temperature
Buffalo, NY 68.0 °F

Nearby Weather Stations